Terminal Aerodrome Forecast
Issued by NWS Louisville, KY

Home | Current Version | Previous Version | Text Only | Print | Product List | Glossary On
Versions: 1 2 3 4 5 6 7 8 9 10 11 12 13 14 15
169
FTUS43 KLMK 241720
TAFBWG
TAF
KBWG 241720Z 2418/2518 VRB03KT P6SM FEW250
     FM250700 00000KT 4SM BR SKC
      TEMPO 2508/2512 1SM BR
     FM251300 VRB03KT P6SM SKC=

USA.gov is the U.S. government's official web portal to all federal, state and local government web resources and services.